createdAt,value
2019-05-07T00:02:42.824Z,97190.14
2019-05-07T00:05:39.612Z,97188.30
2019-05-07T00:08:35.275Z,97187.67
2019-05-07T00:11:33.093Z,97185.38
2019-05-07T00:14:29.658Z,97186.88
2019-05-07T00:17:26.232Z,97186.78
2019-05-07T00:20:23.177Z,97195.00
2019-05-07T00:23:18.600Z,97196.50
2019-05-07T00:26:15.542Z,97193.42
2019-05-07T00:29:13.048Z,97195.39
2019-05-07T00:32:09.474Z,97188.53
2019-05-07T00:35:12.971Z,97190.76
2019-05-07T00:38:22.660Z,97190.13
2019-05-07T00:41:24.306Z,97192.06
2019-05-07T00:44:21.982Z,97196.88
2019-05-07T00:47:17.392Z,97189.69
2019-05-07T00:50:15.688Z,97192.92
2019-05-07T00:53:13.253Z,97200.74
2019-05-07T00:56:09.780Z,97191.38
2019-05-07T00:59:06.429Z,97187.16
2019-05-07T01:02:03.249Z,97188.66
2019-05-07T01:04:59.848Z,97198.59
2019-05-07T01:07:57.386Z,97187.63
2019-05-07T01:10:57.709Z,97190.00
2019-05-07T01:13:53.422Z,97194.10
2019-05-07T01:16:49.805Z,97187.28
2019-05-07T01:19:53.696Z,97185.00
2019-05-07T01:22:54.452Z,97189.43
2019-05-07T01:25:48.794Z,97186.67
2019-05-07T01:28:58.178Z,97193.61
2019-05-07T01:32:00.569Z,97193.98
2019-05-07T01:35:05.599Z,97193.39
2019-05-07T01:38:03.109Z,97186.09
2019-05-07T01:40:57.943Z,97185.84
2019-05-07T01:43:55.016Z,97185.58
2019-05-07T01:46:52.905Z,97186.72
2019-05-07T01:49:48.541Z,97184.44
2019-05-07T01:52:45.386Z,97188.08
2019-05-07T01:55:42.721Z,97185.76
2019-05-07T01:58:37.057Z,97185.59
2019-05-07T02:01:35.616Z,97180.52
2019-05-07T02:04:42.716Z,97182.88
2019-05-07T02:07:52.678Z,97180.25
2019-05-07T02:10:56.959Z,97176.77
2019-05-07T02:13:54.625Z,97179.16
2019-05-07T02:16:50.476Z,97170.51
2019-05-07T02:19:48.007Z,97169.14
2019-05-07T02:22:44.575Z,97169.02
2019-05-07T02:25:41.968Z,97169.08
2019-05-07T02:28:37.921Z,97173.92
2019-05-07T02:31:34.586Z,97168.52
2019-05-07T02:34:34.253Z,97165.86
2019-05-07T02:37:48.315Z,97170.28
2019-05-07T02:40:53.763Z,97167.53
2019-05-07T02:43:50.278Z,97165.41
2019-05-07T02:47:04.194Z,97165.41
2019-05-07T02:50:13.077Z,97167.19
2019-05-07T02:53:22.562Z,97159.88
2019-05-07T02:56:27.065Z,97158.95
2019-05-07T02:59:33.644Z,97156.20
2019-05-07T03:02:28.519Z,97158.56
2019-05-07T03:05:24.642Z,97156.98
2019-05-07T03:08:26.938Z,97159.03
2019-05-07T03:11:18.139Z,97157.72
2019-05-07T03:14:23.653Z,97161.86
2019-05-07T03:17:38.307Z,97156.25
2019-05-07T03:20:39.089Z,97151.51
2019-05-07T03:23:37.182Z,97154.15
2019-05-07T03:26:36.083Z,97151.97
2019-05-07T03:29:33.527Z,97158.43
2019-05-07T03:32:47.497Z,97157.50
2019-05-07T03:35:46.464Z,97154.87
2019-05-07T03:38:39.131Z,97156.89
2019-05-07T03:41:48.052Z,97159.72
2019-05-07T03:44:54.689Z,97159.91
2019-05-07T03:47:54.306Z,97161.48
2019-05-07T03:50:52.833Z,97153.53
2019-05-07T03:53:46.324Z,97161.03
2019-05-07T03:56:43.659Z,97158.53
2019-05-07T03:59:43.054Z,97161.48
2019-05-07T04:02:38.113Z,97163.54
2019-05-07T04:05:35.845Z,97159.05
2019-05-07T04:08:33.489Z,97159.56
2019-05-07T04:11:30.154Z,97159.56
2019-05-07T04:14:28.047Z,97158.89
2019-05-07T04:17:27.014Z,97164.82
2019-05-07T04:20:20.268Z,97162.19
2019-05-07T04:23:17.159Z,97159.69
2019-05-07T04:26:23.251Z,97156.26
2019-05-07T04:29:23.126Z,97153.88
2019-05-07T04:32:18.758Z,97153.37
2019-05-07T04:35:33.492Z,97159.17
2019-05-07T04:38:26.702Z,97155.88
2019-05-07T04:41:23.777Z,97167.74
2019-05-07T04:44:23.251Z,97166.23
2019-05-07T04:47:32.816Z,97172.33
2019-05-07T04:50:38.276Z,97166.58
2019-05-07T04:53:17.541Z,97171.78
2019-05-07T04:56:14.061Z,97168.67
2019-05-07T04:59:12.957Z,97168.67
2019-05-07T05:02:14.928Z,97167.64
2019-05-07T05:05:12.848Z,97172.52
2019-05-07T05:08:13.377Z,97166.87
2019-05-07T05:11:13.065Z,97171.35
2019-05-07T05:14:13.675Z,97166.69
2019-05-07T05:17:08.402Z,97165.42
2019-05-07T05:20:04.722Z,97166.23
2019-05-07T05:23:15.210Z,97172.48
2019-05-07T05:26:12.612Z,97176.64
2019-05-07T05:29:08.782Z,97173.45
2019-05-07T05:32:06.366Z,97182.35
2019-05-07T05:35:03.296Z,97184.66
2019-05-07T05:37:58.288Z,97185.70
2019-05-07T05:40:54.541Z,97187.67
2019-05-07T05:44:02.472Z,97189.36
2019-05-07T05:46:58.907Z,97189.36
2019-05-07T05:49:54.801Z,97188.81
2019-05-07T05:52:58.024Z,97184.12
2019-05-07T05:55:54.226Z,97187.98
2019-05-07T05:58:57.243Z,97194.28
2019-05-07T06:02:06.745Z,97188.48
2019-05-07T06:05:29.527Z,97193.05
2019-05-07T06:08:32.564Z,97191.82
2019-05-07T06:11:52.069Z,97192.76
2019-05-07T06:14:55.783Z,97186.93
2019-05-07T06:17:58.472Z,97191.15
2019-05-07T06:21:07.565Z,97189.79
2019-05-07T06:24:07.333Z,97185.88
2019-05-07T06:27:04.137Z,97190.41
2019-05-07T06:30:02.884Z,97185.77
2019-05-07T06:32:58.002Z,97189.63
2019-05-07T06:35:53.861Z,97188.34
2019-05-07T06:38:58.729Z,97181.22
2019-05-07T06:42:07.483Z,97184.14
2019-05-07T06:45:18.833Z,97187.05
2019-05-07T06:48:15.421Z,97185.88
2019-05-07T06:51:12.589Z,97190.52
2019-05-07T06:54:08.527Z,97184.61
2019-05-07T06:57:04.178Z,97188.80
2019-05-07T07:00:08.975Z,97183.23
2019-05-07T07:03:12.735Z,97184.41
2019-05-07T07:06:22.946Z,97178.05
2019-05-07T07:09:36.875Z,97175.13
2019-05-07T07:12:33.726Z,97175.95
2019-05-07T07:15:32.084Z,97174.96
2019-05-07T07:18:47.604Z,97178.64
2019-05-07T07:21:47.910Z,97170.55
2019-05-07T07:24:57.336Z,97179.98
2019-05-07T07:27:53.310Z,97167.53
2019-05-07T07:31:13.796Z,97165.72
2019-05-07T07:34:13.026Z,97163.29
2019-05-07T07:37:18.181Z,97160.64
2019-05-07T07:40:42.203Z,97152.87
2019-05-07T07:43:37.134Z,97145.00
2019-05-07T07:46:34.163Z,97151.97
2019-05-07T07:49:32.933Z,97141.39
2019-05-07T07:52:26.405Z,97138.74
2019-05-07T07:55:24.074Z,97138.13
2019-05-07T07:58:34.278Z,97136.66
2019-05-07T08:01:33.865Z,97133.58
2019-05-07T08:04:32.166Z,97133.89
2019-05-07T08:07:27.426Z,97133.42
2019-05-07T08:10:23.997Z,97130.38
2019-05-07T08:13:19.266Z,97114.50
2019-05-07T08:16:16.969Z,97124.30
2019-05-07T08:19:21.601Z,97122.73
2019-05-07T08:22:12.053Z,97118.20
2019-05-07T08:25:08.417Z,97116.34
2019-05-07T08:28:04.111Z,97112.55
2019-05-07T08:31:08.811Z,97110.86
2019-05-07T08:34:09.196Z,97104.66
2019-05-07T08:37:05.764Z,97106.99
2019-05-07T08:40:06.571Z,97098.70
2019-05-07T08:43:03.834Z,97101.31
2019-05-07T08:46:07.662Z,97101.52
2019-05-07T08:49:03.438Z,97095.40
2019-05-07T08:52:11.986Z,97095.89
2019-05-07T08:55:09.388Z,97094.17
2019-05-07T08:58:06.264Z,97094.17
2019-05-07T09:01:03.241Z,97097.20
2019-05-07T09:03:58.783Z,97097.71
2019-05-07T09:06:54.693Z,97097.73
2019-05-07T09:09:52.380Z,97091.02
2019-05-07T09:12:57.185Z,97093.65
2019-05-07T09:15:56.248Z,97088.66
2019-05-07T09:18:52.876Z,97091.67
2019-05-07T09:21:49.676Z,97089.66
2019-05-07T09:24:47.163Z,97088.78
2019-05-07T09:27:56.674Z,97090.41
2019-05-07T09:31:14.386Z,97081.03
2019-05-07T09:34:11.768Z,97085.34
2019-05-07T09:37:07.875Z,97084.06
2019-05-07T09:40:04.117Z,97076.66
2019-05-07T09:43:02.642Z,97074.27
2019-05-07T09:45:59.511Z,97060.42
2019-05-07T09:48:57.058Z,97059.14
2019-05-07T09:51:56.431Z,97048.91
2019-05-07T09:54:53.759Z,97045.58
2019-05-07T09:57:52.794Z,97040.21
2019-05-07T10:00:47.515Z,97041.59
2019-05-07T10:03:44.776Z,97042.88
2019-05-07T10:06:42.463Z,97046.69
2019-05-07T10:09:39.123Z,97033.20
2019-05-07T10:12:42.512Z,97035.41
2019-05-07T10:15:41.824Z,97036.81
2019-05-07T10:18:37.153Z,97030.08
2019-05-07T10:21:35.151Z,97035.15
2019-05-07T10:24:32.509Z,97030.08
2019-05-07T10:27:32.474Z,97026.66
2019-05-07T10:30:27.021Z,97024.14
2019-05-07T10:33:24.525Z,97027.16
2019-05-07T10:36:22.866Z,97028.90
2019-05-07T10:39:19.058Z,97025.97
2019-05-07T10:42:19.488Z,97017.58
2019-05-07T10:45:22.846Z,97020.28
2019-05-07T10:48:34.152Z,97004.44
2019-05-07T10:51:32.140Z,97007.05
2019-05-07T10:54:28.735Z,97003.75
2019-05-07T10:57:26.093Z,97002.94
2019-05-07T11:00:23.326Z,96996.99
2019-05-07T11:03:21.953Z,96995.39
2019-05-07T11:06:17.873Z,96992.05
2019-05-07T11:09:15.170Z,96991.20
2019-05-07T11:12:12.679Z,96983.56
2019-05-07T11:15:08.139Z,96986.16
2019-05-07T11:18:27.047Z,96979.42
2019-05-07T11:21:24.353Z,96976.08
2019-05-07T11:24:22.660Z,96970.16
2019-05-07T11:27:19.981Z,96968.02
2019-05-07T11:30:17.282Z,96967.59
2019-05-07T11:33:13.594Z,96969.29
2019-05-07T11:36:11.817Z,96963.75
2019-05-07T11:39:07.508Z,96956.52
2019-05-07T11:42:25.390Z,96948.90
2019-05-07T11:45:26.304Z,96948.47
2019-05-07T11:48:23.717Z,96939.12
2019-05-07T11:51:39.552Z,96935.28
2019-05-07T11:54:35.768Z,96934.41
2019-05-07T11:57:34.084Z,96928.44
2019-05-07T12:00:38.824Z,96933.48
2019-05-07T12:03:35.045Z,96926.66
2019-05-07T12:06:32.336Z,96924.95
2019-05-07T12:09:29.634Z,96929.18
2019-05-07T12:12:27.122Z,96914.70
2019-05-07T12:15:23.335Z,96910.41
2019-05-07T12:18:22.744Z,96913.86
2019-05-07T12:21:21.986Z,96911.38
2019-05-07T12:24:16.678Z,96905.86
2019-05-07T12:27:14.542Z,96904.10
2019-05-07T12:30:12.198Z,96897.22
2019-05-07T12:33:19.476Z,96898.41
2019-05-07T12:36:15.211Z,96892.08
2019-05-07T12:39:13.673Z,96890.73
2019-05-07T12:42:12.209Z,96891.44
2019-05-07T12:45:09.703Z,96880.66
2019-05-07T12:48:11.323Z,96882.39
2019-05-07T12:51:05.478Z,96881.66
2019-05-07T12:54:07.109Z,96879.30
2019-05-07T12:57:03.345Z,96871.24
2019-05-07T13:00:02.098Z,96865.02
2019-05-07T13:03:05.037Z,96867.84
2019-05-07T13:06:02.557Z,96863.85
2019-05-07T13:08:59.972Z,96853.94
2019-05-07T13:11:56.369Z,96855.66
2019-05-07T13:14:53.847Z,96858.83
2019-05-07T13:17:49.373Z,96858.74
2019-05-07T13:20:48.880Z,96850.57
2019-05-07T13:23:44.017Z,96844.00
2019-05-07T13:26:42.747Z,96847.66
2019-05-07T13:29:39.878Z,96845.93
2019-05-07T13:32:36.263Z,96832.28
2019-05-07T13:35:33.647Z,96839.07
2019-05-07T13:38:42.532Z,96838.47
2019-05-07T13:41:53.506Z,96837.81
2019-05-07T13:45:12.769Z,96834.24
2019-05-07T13:48:16.805Z,96833.89
2019-05-07T13:51:13.995Z,96826.81
2019-05-07T13:54:12.939Z,96823.19
2019-05-07T13:57:08.875Z,96818.64
2019-05-07T14:00:07.260Z,96815.75
2019-05-07T14:03:03.835Z,96809.70
2019-05-07T14:06:01.719Z,96801.45
2019-05-07T14:08:58.634Z,96801.89
2019-05-07T14:11:55.846Z,96799.94
2019-05-07T14:14:53.435Z,96797.35
2019-05-07T14:17:49.862Z,96788.45
2019-05-07T14:20:47.170Z,96792.16
2019-05-07T14:23:47.922Z,96786.45
2019-05-07T14:26:45.481Z,96782.27
2019-05-07T14:29:43.911Z,96783.03
2019-05-07T14:33:06.127Z,96782.00
2019-05-07T14:36:12.113Z,96786.58
2019-05-07T14:39:08.349Z,96786.92
2019-05-07T14:42:05.516Z,96776.17
2019-05-07T14:45:01.792Z,96774.58
2019-05-07T14:47:58.893Z,96771.22
2019-05-07T14:50:56.628Z,96770.34
2019-05-07T14:53:54.368Z,96776.16
2019-05-07T14:56:53.833Z,96764.30
2019-05-07T14:59:52.376Z,96766.64
2019-05-07T15:02:48.834Z,96765.31
2019-05-07T15:05:45.396Z,96763.71
2019-05-07T15:08:42.982Z,96765.18
2019-05-07T15:11:42.337Z,96760.67
2019-05-07T15:14:35.965Z,96760.01
2019-05-07T15:17:41.948Z,96762.28
2019-05-07T15:20:38.671Z,96758.84
2019-05-07T15:23:42.580Z,96767.41
2019-05-07T15:26:39.290Z,96762.59
2019-05-07T15:29:36.917Z,96758.98
2019-05-07T15:32:36.247Z,96760.26
2019-05-07T15:35:32.474Z,96748.73
2019-05-07T15:38:29.828Z,96758.89
2019-05-07T15:41:26.318Z,96759.14
2019-05-07T15:44:24.458Z,96757.52
2019-05-07T15:47:25.435Z,96748.91
2019-05-07T15:50:23.156Z,96754.34
2019-05-07T15:53:37.961Z,96755.52
2019-05-07T15:56:34.302Z,96758.58
2019-05-07T15:59:34.889Z,96762.22
2019-05-07T16:02:41.539Z,96753.45
2019-05-07T16:05:37.803Z,96751.06
2019-05-07T16:08:35.283Z,96746.02
2019-05-07T16:11:32.700Z,96749.41
2019-05-07T16:14:35.162Z,96751.47
2019-05-07T16:17:42.869Z,96744.85
2019-05-07T16:20:39.778Z,96744.98
2019-05-07T16:23:36.882Z,96746.04
2019-05-07T16:26:33.234Z,96740.64
2019-05-07T16:29:33.697Z,96740.33
2019-05-07T16:32:27.582Z,96734.28
2019-05-07T16:35:24.851Z,96733.75
2019-05-07T16:38:23.374Z,96733.82
2019-05-07T16:41:22.372Z,96737.88
2019-05-07T16:44:19.350Z,96737.61
2019-05-07T16:47:15.469Z,96740.24
2019-05-07T16:50:13.247Z,96738.16
2019-05-07T16:53:08.969Z,96737.89
2019-05-07T16:56:07.324Z,96736.38
2019-05-07T16:59:07.903Z,96734.75
2019-05-07T17:02:06.277Z,96734.84
2019-05-07T17:05:22.922Z,96726.50
2019-05-07T17:08:29.055Z,96727.44
2019-05-07T17:11:27.757Z,96725.41
2019-05-07T17:14:24.242Z,96731.39
2019-05-07T17:17:22.395Z,96724.28
2019-05-07T17:20:19.124Z,96722.22
2019-05-07T17:23:15.647Z,96722.69
2019-05-07T17:26:13.269Z,96718.48
2019-05-07T17:29:09.576Z,96722.80
2019-05-07T17:32:07.989Z,96724.56
2019-05-07T17:35:06.753Z,96704.67
2019-05-07T17:38:08.991Z,96716.15
2019-05-07T17:41:10.798Z,96720.88
2019-05-07T17:43:59.249Z,96721.37
2019-05-07T17:47:01.841Z,96712.45
2019-05-07T17:49:57.097Z,96713.33
2019-05-07T17:52:54.747Z,96714.65
2019-05-07T17:55:53.435Z,96714.63
2019-05-07T17:58:52.078Z,96714.64
2019-05-07T18:02:04.340Z,96716.36
2019-05-07T18:05:02.833Z,96714.70
2019-05-07T18:08:02.181Z,96713.03
2019-05-07T18:11:02.031Z,96710.48
2019-05-07T18:13:57.140Z,96715.59
2019-05-07T18:17:22.010Z,96724.08
2019-05-07T18:20:18.929Z,96714.73
2019-05-07T18:23:17.091Z,96718.14
2019-05-07T18:26:26.433Z,96711.36
2019-05-07T18:29:08.868Z,96705.41
2019-05-07T18:32:07.791Z,96699.48
2019-05-07T18:35:05.321Z,96707.52
2019-05-07T18:38:03.777Z,96709.63
2019-05-07T18:41:02.366Z,96707.50
2019-05-07T18:44:12.087Z,96708.30
2019-05-07T18:46:56.296Z,96706.59
2019-05-07T18:49:52.520Z,96705.30
2019-05-07T18:52:52.081Z,96702.73
2019-05-07T18:55:46.336Z,96707.78
2019-05-07T18:58:42.839Z,96706.48
2019-05-07T19:01:39.376Z,96708.16
2019-05-07T19:04:42.253Z,96707.67
2019-05-07T19:07:38.947Z,96709.30
2019-05-07T19:10:37.134Z,96713.51
2019-05-07T19:13:35.635Z,96711.77
2019-05-07T19:16:36.469Z,96709.18
2019-05-07T19:19:33.651Z,96712.52
2019-05-07T19:22:29.849Z,96712.45
2019-05-07T19:25:28.370Z,96709.01
2019-05-07T19:28:23.917Z,96712.36
2019-05-07T19:31:22.015Z,96708.08
2019-05-07T19:34:21.830Z,96711.00
2019-05-07T19:37:17.250Z,96713.91
2019-05-07T19:40:15.805Z,96704.48
2019-05-07T19:43:11.995Z,96704.41
2019-05-07T19:46:08.825Z,96710.27
2019-05-07T19:49:07.122Z,96708.52
2019-05-07T19:52:02.893Z,96708.01
2019-05-07T19:55:04.709Z,96700.73
2019-05-07T19:58:04.161Z,96703.19
2019-05-07T20:01:01.442Z,96702.29
2019-05-07T20:03:58.776Z,96701.77
2019-05-07T20:06:56.230Z,96702.15
2019-05-07T20:09:52.552Z,96702.94
2019-05-07T20:12:53.165Z,96706.27
2019-05-07T20:15:49.355Z,96711.70
2019-05-07T20:18:46.497Z,96707.87
2019-05-07T20:21:42.659Z,96701.05
2019-05-07T20:24:46.832Z,96703.49
2019-05-07T20:27:41.336Z,96709.30
2019-05-07T20:30:41.792Z,96702.03
2019-05-07T20:33:36.400Z,96705.80
2019-05-07T20:36:33.791Z,96709.16
2019-05-07T20:39:33.070Z,96702.27
2019-05-07T20:42:29.072Z,96699.69
2019-05-07T20:45:28.167Z,96704.24
2019-05-07T20:48:24.896Z,96702.97
2019-05-07T20:51:23.144Z,96699.50
2019-05-07T20:54:33.471Z,96695.25
2019-05-07T20:57:42.836Z,96707.02
2019-05-07T21:00:39.335Z,96705.30
2019-05-07T21:03:35.389Z,96706.53
2019-05-07T21:06:33.840Z,96702.25
2019-05-07T21:09:32.804Z,96704.33
2019-05-07T21:12:28.536Z,96696.67
2019-05-07T21:15:26.865Z,96699.17
2019-05-07T21:18:23.523Z,96697.38
2019-05-07T21:21:21.852Z,96695.58
2019-05-07T21:24:16.283Z,96695.49
2019-05-07T21:27:13.130Z,96698.44
2019-05-07T21:30:10.443Z,96691.17
2019-05-07T21:33:06.696Z,96693.17
2019-05-07T21:36:03.852Z,96690.99
2019-05-07T21:39:02.064Z,96692.22
2019-05-07T21:41:58.227Z,96692.22
2019-05-07T21:44:54.967Z,96682.47
2019-05-07T21:47:52.070Z,96678.18
2019-05-07T21:50:46.765Z,96678.14
2019-05-07T21:53:45.832Z,96675.55
2019-05-07T21:56:58.464Z,96672.14
2019-05-07T21:59:55.001Z,96674.66
2019-05-07T22:02:52.439Z,96678.87
2019-05-07T22:05:47.821Z,96672.06
2019-05-07T22:08:43.488Z,96677.03
2019-05-07T22:11:42.600Z,96679.56
2019-05-07T22:14:36.737Z,96685.45
2019-05-07T22:17:34.212Z,96682.06
2019-05-07T22:20:31.455Z,96674.95
2019-05-07T22:23:32.257Z,96666.09
2019-05-07T22:26:32.371Z,96669.27
2019-05-07T22:29:29.121Z,96662.76
2019-05-07T22:32:52.798Z,96660.83
2019-05-07T22:35:52.281Z,96661.13
2019-05-07T22:38:47.314Z,96660.93
2019-05-07T22:41:43.914Z,96655.73
2019-05-07T22:44:48.633Z,96646.41
2019-05-07T22:47:44.045Z,96636.31
2019-05-07T22:50:42.118Z,96632.91
2019-05-07T22:53:39.140Z,96634.17
2019-05-07T22:56:38.746Z,96632.89
2019-05-07T22:59:34.834Z,96630.39
2019-05-07T23:02:32.151Z,96623.71
2019-05-07T23:05:35.924Z,96620.38
2019-05-07T23:08:33.511Z,96617.81
2019-05-07T23:11:34.448Z,96611.86
2019-05-07T23:14:29.984Z,96619.35
2019-05-07T23:17:27.724Z,96618.40
2019-05-07T23:20:24.446Z,96614.27
2019-05-07T23:23:33.598Z,96610.10
2019-05-07T23:26:48.146Z,96614.38
2019-05-07T23:29:34.676Z,96615.72
2019-05-07T23:32:37.650Z,96608.52
2019-05-07T23:35:33.451Z,96607.53
2019-05-07T23:38:31.913Z,96604.95
2019-05-07T23:41:42.650Z,96598.11
2019-05-07T23:44:42.018Z,96596.42
2019-05-07T23:47:37.640Z,96608.19
2019-05-07T23:50:36.167Z,96602.22
2019-05-07T23:53:31.696Z,96603.92
2019-05-07T23:56:29.568Z,96594.58
2019-05-07T23:59:25.204Z,96587.34
